Time;durP1;ratioP1;P1;durP2;ratioP2;P2;SDS_P1;SDS_P2;PMS_P1;PMS_P2;Temp;Humidity;BMP_temperature;BMP_pressure;BME280_temperature;BME280_humidity;BME280_pressure;Samples;Min_cycle;Max_cycle;Signal;HPM_P1;HPM_P2
2023/06/05 07:22:55;;;;;;;11.57;9.65;;;;;;;-145.79;55.98;77936.91;5324178;27;1249493;-72
2023/06/05 07:25:27;;;;;;;12.38;11.07;;;;;;;-145.79;56.01;77934.78;5343757;27;20394;-72
2023/06/05 07:27:59;;;;;;;14.65;10.68;;;;;;;-145.79;55.53;77928.41;5343727;27;20023;-72
2023/06/05 07:30:31;;;;;;;13.90;10.07;;;;;;;-145.79;55.93;77922.06;5343824;27;20030;-71
2023/06/05 07:33:03;;;;;;;12.18;10.00;;;;;;;-145.79;55.25;77915.69;5343913;28;20024;-71
2023/06/05 07:35:34;;;;;;;13.43;9.30;;;;;;;-145.79;55.42;77902.97;5322768;27;20085;-72
2023/06/05 07:38:06;;;;;;;12.07;9.93;;;;;;;-145.79;55.49;77888.13;5321420;28;20035;-72
2023/06/05 07:40:38;;;;;;;10.63;9.50;;;;;;;-145.79;55.29;77894.50;5344016;22;20051;-72
2023/06/05 07:43:13;;;;;;;13.13;10.30;;;;;;;-145.79;54.46;77879.66;5279095;28;20021;-71
2023/06/05 07:45:44;;;;;;;10.43;9.32;;;;;;;-145.79;54.92;77881.78;5277901;28;20060;-72
2023/06/05 07:48:15;;;;;;;12.40;11.10;;;;;;;-145.79;55.39;77907.22;5278267;28;20079;-72
2023/06/05 07:50:47;;;;;;;12.88;9.45;;;;;;;-145.79;54.65;77877.53;5278539;28;20108;-71
2023/06/05 07:53:18;;;;;;;10.00;9.05;;;;;;;-145.79;54.60;77847.84;5278608;28;20024;-71
2023/06/05 07:55:51;;;;;;;10.55;9.07;;;;;;;-145.79;53.94;77839.38;5279352;28;20083;-71
2023/06/05 07:58:23;;;;;;;10.68;9.48;;;;;;;-145.79;54.01;77849.97;5278614;28;20032;-72
2023/06/05 08:00:56;;;;;;;13.35;9.05;;;;;;;-145.79;53.80;77830.91;5279363;28;20065;-73
2023/06/05 08:03:28;;;;;;;11.80;9.13;;;;;;;-145.79;53.94;77801.22;5279362;28;20365;-71
2023/06/05 08:05:59;;;;;;;11.98;8.98;;;;;;;-145.79;53.33;77792.75;5277464;28;20074;-72
2023/06/05 08:08:31;;;;;;;13.77;9.30;;;;;;;-145.79;52.59;77780.03;5278415;28;20021;-72
2023/06/05 08:11:02;;;;;;;11.80;9.68;;;;;;;-145.79;52.70;77780.03;5279248;28;20052;-72
2023/06/05 08:13:33;;;;;;;11.30;10.10;;;;;;;-145.79;52.58;77803.34;5276884;28;20087;-72
2023/06/05 08:16:06;;;;;;;11.07;9.45;;;;;;;-145.79;52.84;77807.59;5278401;28;20033;-72
2023/06/05 08:18:37;;;;;;;10.80;9.27;;;;;;;-145.79;52.63;77780.03;5278989;28;20028;-72
2023/06/05 08:21:09;;;;;;;9.82;8.82;;;;;;;-145.79;52.02;77750.34;5277758;28;20036;-72
2023/06/05 08:23:40;;;;;;;10.02;8.43;;;;;;;-145.79;52.34;77737.63;5278948;28;20443;-72
2023/06/05 08:26:11;;;;;;;10.07;8.88;;;;;;;-145.79;51.95;77716.44;5277369;28;20098;-70
2023/06/05 08:28:42;;;;;;;11.15;8.57;;;;;;;-145.79;51.10;77710.06;5278556;28;20028;-70
2023/06/05 08:31:14;;;;;;;12.52;9.15;;;;;;;-145.79;51.26;77693.13;5274648;28;20479;-71
2023/06/05 08:33:45;;;;;;;13.88;9.02;;;;;;;-145.79;51.25;77686.75;5266773;28;20067;-71
2023/06/05 08:36:18;;;;;;;8.60;7.57;;;;;;;-145.79;50.24;77674.03;5264769;28;20104;-71
2023/06/05 08:38:50;;;;;;;14.05;9.07;;;;;;;-145.79;50.19;77671.91;5263972;28;20479;-71
2023/06/05 08:41:23;;;;;;;10.50;8.90;;;;;;;-145.79;50.51;77680.38;5263719;28;20025;-72
2023/06/05 08:43:55;;;;;;;10.05;8.70;;;;;;;-145.79;50.56;77682.50;5264498;28;20108;-73
2023/06/05 08:46:30;;;;;;;12.50;9.07;;;;;;;-145.79;50.56;77686.75;5264559;28;20104;-71
2023/06/05 08:49:07;;;;;;;;;;;;;;;-145.79;50.08;77633.75;5263813;28;20112;-72
2023/06/05 08:51:40;;;;;;;10.93;8.25;;;;;;;-145.79;50.17;77661.31;5263645;28;19917;-71
2023/06/05 08:54:14;;;;;;;14.45;8.40;;;;;;;-145.79;50.36;77663.44;5263925;28;20104;-72
2023/06/05 08:56:46;;;;;;;12.90;8.80;;;;;;;-145.79;50.41;77652.84;5264486;28;20021;-71
2023/06/05 08:59:19;;;;;;;10.32;8.05;;;;;;;-145.79;49.80;77635.88;5262945;28;20094;-72
2023/06/05 09:01:50;;;;;;;10.18;8.43;;;;;;;-145.79;49.70;77614.69;5263163;28;20025;-72
2023/06/05 09:04:22;;;;;;;9.45;8.48;;;;;;;-145.79;49.49;77614.69;5263934;28;20052;-71
2023/06/05 09:06:54;;;;;;;10.73;8.23;;;;;;;-145.79;49.39;77597.72;5264200;28;20028;-72
2023/06/05 09:09:26;;;;;;;11.55;8.90;;;;;;;-145.79;48.88;77591.38;5263045;28;20021;-72
2023/06/05 09:12:05;;;;;;;11.50;8.82;;;;;;;-145.79;48.73;77572.28;5264126;28;20025;-72
2023/06/05 09:14:37;;;;;;;9.65;7.95;;;;;;;-145.79;48.10;77551.09;5263511;28;20096;-72
2023/06/05 09:17:13;;;;;;;12.48;7.70;;;;;;;-145.79;47.68;77546.84;5262406;28;20112;-71
2023/06/05 09:19:47;;;;;;;13.07;7.43;;;;;;;-145.79;46.96;77538.38;5245935;28;20028;-71
2023/06/05 09:22:33;;;;;;;9.00;8.00;;;;;;;-145.79;47.19;77512.94;5263219;28;20029;-71
2023/06/05 09:25:05;;;;;;;13.98;8.32;;;;;;;-145.79;47.43;77551.09;5263457;28;20033;-73
2023/06/05 09:27:38;;;;;;;12.52;9.00;;;;;;;-145.79;47.57;77555.31;5263649;28;20108;-72
2023/06/05 09:30:10;;;;;;;11.93;8.18;;;;;;;-145.79;47.60;77525.66;5262610;28;20475;-72
2023/06/05 09:32:42;;;;;;;9.13;8.23;;;;;;;-145.79;47.29;77521.41;5263565;28;20029;-70
2023/06/05 09:35:16;;;;;;;8.77;7.72;;;;;;;-145.79;47.63;77498.09;5263565;28;20154;-72
2023/06/05 09:37:48;;;;;;;9.25;7.25;;;;;;;-145.79;47.39;77525.66;5262836;28;20025;-72
2023/06/05 09:40:36;;;;;;;8.52;7.32;;;;;;;-145.79;47.36;77476.91;5263471;28;20048;-72
2023/06/05 09:43:16;;;;;;;9.57;7.07;;;;;;;-145.79;46.90;77470.53;5263393;28;20037;-72
2023/06/05 09:45:47;;;;;;;13.98;7.57;;;;;;;-145.79;46.69;77464.19;5261479;28;20143;-72
2023/06/05 09:48:19;;;;;;;9.20;6.93;;;;;;;-145.79;46.47;77457.81;5263349;28;20139;-72
2023/06/05 09:50:52;;;;;;;11.18;6.95;;;;;;;-145.79;46.75;77464.19;5262525;28;20036;-72
2023/06/05 09:53:29;;;;;;;9.13;7.60;;;;;;;-145.79;46.80;77445.09;5263375;28;20087;-71
2023/06/05 09:56:02;;;;;;;10.77;5.80;;;;;;;-145.79;46.06;77428.16;5262371;28;20075;-71
2023/06/05 09:58:35;;;;;;;10.77;6.47;;;;;;;-145.79;45.75;77398.47;5259777;28;20025;-72
2023/06/05 10:01:16;;;;;;;9.27;6.45;;;;;;;-145.79;45.27;77383.63;5262508;28;20029;-72
2023/06/05 10:03:55;;;;;;;14.35;7.47;;;;;;;-145.79;45.14;77390.00;5265508;28;20024;-71
2023/06/05 10:06:29;;;;;;;7.70;6.82;;;;;;;-145.79;44.63;77385.75;5258012;28;20551;-73
2023/06/05 10:09:00;;;;;;;10.05;6.13;;;;;;;-145.79;44.57;77373.03;5248884;28;20025;-73
2023/06/05 10:11:33;;;;;;;10.10;5.88;;;;;;;-145.79;44.57;77373.03;5260546;28;20051;-72
2023/06/05 10:14:06;;;;;;;7.68;5.72;;;;;;;-145.79;44.41;77351.84;5261597;28;20036;-72
2023/06/05 10:16:38;;;;;;;8.25;6.55;;;;;;;-145.79;44.25;77339.13;5260495;28;20033;-71
2023/06/05 10:19:10;;;;;;;9.18;6.63;;;;;;;-145.79;43.98;77330.66;5260651;28;20033;-72
2023/06/05 10:21:41;;;;;;;6.55;5.65;;;;;;;-145.79;44.40;77324.28;5255131;28;20510;-72
2023/06/05 10:24:35;;;;;;;8.95;7.35;;;;;;;-145.79;43.93;77296.72;5260601;28;20037;-72
2023/06/05 10:27:16;;;;;;;13.25;9.73;;;;;;;-145.79;43.73;77294.59;5260044;28;20085;-71
2023/06/05 10:30:06;;;;;;;7.18;5.78;;;;;;;-145.79;43.77;77262.81;5261715;28;20029;-70
2023/06/05 10:32:59;;;;;;;7.35;6.65;;;;;;;-145.79;44.07;77269.19;5260515;28;20061;-71
2023/06/05 10:36:06;;;;;;;12.95;7.60;;;;;;;-145.79;43.85;77273.41;5261412;28;20033;-71
2023/06/05 10:38:39;;;;;;;8.77;7.03;;;;;;;-145.79;43.92;77260.69;5260397;28;20043;-70
2023/06/05 10:41:11;;;;;;;10.23;5.50;;;;;;;-145.79;43.37;77247.97;5260431;28;20504;-70
2023/06/05 10:43:47;;;;;;;9.30;6.10;;;;;;;-145.79;44.05;77247.97;5261312;28;20029;-70
2023/06/05 10:46:34;;;;;;;12.68;6.47;;;;;;;-145.79;43.59;77220.44;5260804;28;20059;-72
2023/06/05 10:49:19;;;;;;;7.60;6.00;;;;;;;-145.79;43.14;77220.44;5260795;28;20029;-72
2023/06/05 10:51:56;;;;;;;8.95;6.35;;;;;;;-145.79;42.85;77195.00;5261029;28;20119;-70
2023/06/05 10:54:27;;;;;;;7.63;5.65;;;;;;;-145.79;42.45;77199.22;5260201;28;20499;-70
2023/06/05 10:57:06;;;;;;;20.63;17.80;;;;;;;-145.79;42.49;77195.00;5259785;28;20040;-71
2023/06/05 10:59:39;;;;;;;8.02;6.60;;;;;;;-145.79;41.95;77165.31;5260299;28;20381;-71
2023/06/05 11:02:14;;;;;;;6.72;4.70;;;;;;;-145.79;41.79;77137.75;5260286;28;20064;-71
2023/06/05 11:04:48;;;;;;;8.57;5.05;;;;;;;-145.79;41.55;77139.88;5260726;28;20143;-71
2023/06/05 11:07:30;;;;;;;10.02;5.57;;;;;;;-145.79;41.10;77122.94;5260288;28;20028;-71
2023/06/05 11:10:01;;;;;;;8.77;5.10;;;;;;;-145.79;40.50;77112.31;5260296;28;20017;-71
2023/06/05 11:12:38;;;;;;;13.65;9.10;;;;;;;-145.79;41.08;77129.28;5260107;28;20093;-70
2023/06/05 11:15:14;;;;;;;7.63;5.68;;;;;;;-145.79;41.12;77112.31;5241208;28;20068;-69
2023/06/05 11:17:46;;;;;;;9.98;5.32;;;;;;;-145.79;40.84;77095.38;5260420;28;20040;-69
2023/06/05 11:20:23;;;;;;;10.45;5.70;;;;;;;-145.79;41.03;77089.00;5261028;28;20032;-71
2023/06/05 11:22:57;;;;;;;6.85;5.00;;;;;;;-145.79;40.65;77057.22;5259345;28;20064;-70
2023/06/05 11:25:32;;;;;;;8.27;6.55;;;;;;;-145.79;39.94;77046.63;5259910;28;20426;-71
2023/06/05 11:28:11;;;;;;;12.90;7.65;;;;;;;-145.79;40.22;77072.06;5260172;28;20448;-72
2023/06/05 11:30:45;;;;;;;6.05;5.20;;;;;;;-145.79;40.50;77057.22;5259653;28;20047;-71
2023/06/05 11:33:20;;;;;;;7.30;4.82;;;;;;;-145.79;40.12;77040.25;5258985;28;20099;-71
2023/06/05 11:35:52;;;;;;;7.10;4.90;;;;;;;-145.79;39.63;77012.72;5259738;28;20108;-71
2023/06/05 11:38:24;;;;;;;10.93;4.47;;;;;;;-145.79;39.40;76989.41;5260169;28;20113;-70
2023/06/05 11:40:56;;;;;;;8.18;4.35;;;;;;;-145.79;39.38;76983.03;5259463;28;20041;-71
2023/06/05 11:43:28;;;;;;;9.07;5.20;;;;;;;-145.79;39.14;76978.81;5255493;28;20426;-69
2023/06/05 11:46:00;;;;;;;6.60;4.20;;;;;;;-145.79;39.14;76951.25;5259982;28;20028;-70
2023/06/05 11:48:31;;;;;;;7.30;4.90;;;;;;;-145.79;38.68;76976.69;5259709;28;20452;-70
2023/06/05 11:51:05;;;;;;;8.15;4.97;;;;;;;-145.79;38.58;76976.69;5259022;28;20044;-71
2023/06/05 11:53:44;;;;;;;8.18;4.95;;;;;;;-145.79;39.14;76957.59;5260340;28;20495;-70
2023/06/05 11:56:18;;;;;;;9.60;4.50;;;;;;;-145.79;39.20;76923.69;5259781;28;20033;-70
2023/06/05 11:58:49;;;;;;;5.90;4.78;;;;;;;-145.79;38.63;76919.47;5259475;28;20025;-70
2023/06/05 12:01:31;;;;;;;6.28;4.45;;;;;;;-145.79;38.31;76887.66;5259088;28;20025;-70
2023/06/05 12:04:03;;;;;;;5.38;4.88;;;;;;;-145.79;38.13;76910.97;5260005;28;20033;-70
2023/06/05 12:06:42;;;;;;;6.68;4.65;;;;;;;-145.79;38.25;76885.56;5242099;28;20091;-71
2023/06/05 12:09:15;;;;;;;9.60;4.95;;;;;;;-145.79;37.38;76883.44;5262766;28;20079;-70
2023/06/05 12:11:48;;;;;;;7.05;4.63;;;;;;;-145.79;37.24;76870.72;5261022;28;20091;-72
2023/06/05 12:14:31;;;;;;;6.22;4.47;;;;;;;-145.79;37.48;76853.75;5253115;28;20453;-73
2023/06/05 12:17:09;;;;;;;5.88;4.63;;;;;;;-145.79;37.13;76860.13;5242826;28;20018;-72
2023/06/05 12:19:41;;;;;;;7.45;4.32;;;;;;;-145.79;37.08;76858.00;5252868;28;20029;-71
2023/06/05 12:22:13;;;;;;;5.53;4.13;;;;;;;-145.79;36.87;76836.81;5263726;28;20051;-70
2023/06/05 12:24:45;;;;;;;9.13;4.65;;;;;;;-145.79;36.85;76853.75;5254519;28;20022;-71
2023/06/05 12:27:17;;;;;;;4.45;4.05;;;;;;;-145.79;36.74;76817.72;5242241;28;20017;-71
2023/06/05 12:29:54;;;;;;;7.10;4.22;;;;;;;-145.79;36.31;76834.69;5243298;28;20032;-72
2023/06/05 12:32:26;;;;;;;5.45;4.05;;;;;;;-145.79;35.86;76821.97;5242444;28;20337;-71
2023/06/05 12:34:57;;;;;;;7.47;3.95;;;;;;;-145.79;35.98;76785.94;5225404;28;20025;-71
2023/06/05 12:37:38;;;;;;;7.03;4.05;;;;;;;-145.79;35.76;76790.19;5242980;28;20025;-72
2023/06/05 12:40:14;;;;;;;4.40;3.17;;;;;;;-145.79;35.92;76775.34;5251251;28;20807;-71
2023/06/05 12:42:45;;;;;;;7.95;4.18;;;;;;;-145.79;35.89;76779.59;5263716;28;20388;-71
2023/06/05 12:45:17;;;;;;;4.18;3.55;;;;;;;-145.79;35.43;76760.50;5263901;28;20025;-71
2023/06/05 12:47:48;;;;;;;5.82;3.47;;;;;;;-145.79;34.98;76737.19;5262899;28;20033;-71
2023/06/05 12:50:19;;;;;;;4.90;3.42;;;;;;;-145.79;35.07;76720.25;5263511;28;20056;-70
2023/06/05 12:52:51;;;;;;;7.47;3.60;;;;;;;-145.79;34.89;76722.34;5263541;28;20033;-72
2023/06/05 12:55:22;;;;;;;4.65;3.13;;;;;;;-145.79;34.59;76711.75;5262442;28;20035;-71
2023/06/05 12:57:53;;;;;;;5.03;3.10;;;;;;;-145.79;34.19;76692.69;5262506;28;20043;-71
2023/06/05 13:00:25;;;;;;;3.72;2.90;;;;;;;-145.79;34.13;76677.84;5262248;28;20171;-71
2023/06/05 13:02:56;;;;;;;5.68;3.53;;;;;;;-145.79;34.62;76667.25;5263028;28;20029;-71
2023/06/05 13:05:27;;;;;;;6.97;3.30;;;;;;;-145.79;34.16;76660.91;5262641;28;20361;-72
2023/06/05 13:07:59;;;;;;;5.80;3.00;;;;;;;-145.79;33.44;76652.44;5262057;28;20044;-72
2023/06/05 13:10:30;;;;;;;4.95;3.78;;;;;;;-145.79;33.17;76663.03;5263092;28;20025;-71
2023/06/05 13:13:01;;;;;;;3.92;3.45;;;;;;;-145.79;33.60;76671.50;5262323;28;20028;-72
2023/06/05 13:15:32;;;;;;;6.15;3.50;;;;;;;-145.79;33.73;76650.31;5261693;28;20099;-72
2023/06/05 13:18:04;;;;;;;6.35;4.57;;;;;;;-145.79;33.48;76639.72;5262651;28;20055;-72
2023/06/05 13:20:36;;;;;;;6.22;3.75;;;;;;;-145.79;33.03;76639.72;5262780;28;20028;-72
2023/06/05 13:23:07;;;;;;;6.03;3.50;;;;;;;-145.79;33.21;76635.47;5262279;28;20098;-71
2023/06/05 13:25:39;;;;;;;4.55;3.72;;;;;;;-145.79;33.66;76637.59;5262696;28;20040;-69
2023/06/05 13:28:11;;;;;;;6.80;3.75;;;;;;;-145.79;33.13;76635.47;5262622;28;20044;-68
2023/06/05 13:30:42;;;;;;;5.05;3.05;;;;;;;-145.79;33.15;76618.53;5261737;28;20447;-68
2023/06/05 13:33:13;;;;;;;9.15;5.80;;;;;;;-145.79;33.10;76614.28;5262127;28;20057;-68
2023/06/05 13:35:45;;;;;;;4.45;3.63;;;;;;;-145.79;32.53;76601.56;5261612;28;20033;-68
2023/06/05 13:38:16;;;;;;;5.40;4.07;;;;;;;-145.79;32.61;76614.28;5261692;28;20116;-75
2023/06/05 13:40:49;;;;;;;10.05;3.55;;;;;;;-145.79;33.14;76631.22;5262131;28;20053;-71
2023/06/05 13:43:22;;;;;;;8.07;4.40;;;;;;;-145.79;34.00;76639.72;5260860;28;20107;-72
2023/06/05 13:45:53;;;;;;;7.03;3.10;;;;;;;-145.79;32.66;76618.53;5262316;28;20087;-71
2023/06/05 13:48:24;;;;;;;4.57;2.38;;;;;;;-145.79;31.78;76588.84;5262092;28;20021;-71
2023/06/05 13:50:59;;;;;;;3.83;3.20;;;;;;;-145.79;31.75;76582.50;5261350;28;20031;-72
2023/06/05 13:53:37;;;;;;;4.87;3.00;;;;;;;-145.79;32.08;76582.50;5261976;28;20028;-74
2023/06/05 13:56:08;;;;;;;6.05;3.13;;;;;;;-145.79;31.93;76550.69;5261154;28;20029;-71
2023/06/05 13:58:39;;;;;;;3.70;2.67;;;;;;;-145.79;31.74;76584.59;5261206;28;20025;-71
2023/06/05 14:01:11;;;;;;;5.13;2.97;;;;;;;-145.79;31.80;76546.47;5262062;28;20512;-73
2023/06/05 14:03:42;;;;;;;4.85;2.95;;;;;;;-145.79;31.82;76508.31;5261443;28;20184;-73
2023/06/05 14:06:13;;;;;;;3.80;3.28;;;;;;;-145.79;31.98;76540.09;5262033;28;20036;-72
2023/06/05 14:08:45;;;;;;;4.63;3.30;;;;;;;-145.79;32.14;76542.22;5261888;28;20134;-73
2023/06/05 14:11:19;;;;;;;5.22;3.40;;;;;;;-145.79;32.90;76540.09;5260543;28;20025;-73
2023/06/05 14:13:50;;;;;;;4.70;3.05;;;;;;;-145.79;33.29;76538.00;5261324;28;20571;-75
2023/06/05 14:16:22;;;;;;;3.35;2.90;;;;;;;-145.79;31.82;76510.44;5261699;28;20047;-71
2023/06/05 14:18:53;;;;;;;8.15;2.85;;;;;;;-145.79;32.28;76480.78;5260818;28;20025;-72
2023/06/05 14:21:25;;;;;;;6.32;3.90;;;;;;;-145.79;33.04;76501.97;5261603;28;20037;-72
2023/06/05 14:23:56;;;;;;;5.35;4.32;;;;;;;-145.79;33.24;76474.41;5260043;28;20518;-72
2023/06/05 14:26:29;;;;;;;6.72;3.90;;;;;;;-145.79;33.13;76476.53;5260718;28;20017;-72
2023/06/05 14:29:00;;;;;;;4.63;3.47;;;;;;;-145.79;30.93;76499.84;5261456;28;20025;-72
2023/06/05 14:31:31;;;;;;;5.38;2.92;;;;;;;-145.79;31.21;76478.66;5261240;28;20090;-74
2023/06/05 14:34:03;;;;;;;5.72;3.25;;;;;;;-145.79;31.16;76474.41;5261321;28;20035;-72
2023/06/05 14:36:35;;;;;;;3.42;2.75;;;;;;;-145.79;31.38;76470.19;5260264;28;20021;-71
2023/06/05 14:39:07;;;;;;;5.78;3.50;;;;;;;-145.79;33.24;76457.47;5256987;28;20029;-73
2023/06/05 14:41:38;;;;;;;5.90;4.90;;;;;;;-145.79;33.43;76482.88;5259230;28;20031;-71
2023/06/05 14:44:10;;;;;;;6.70;4.47;;;;;;;-145.79;33.82;76480.78;5257581;28;20207;-72
2023/06/05 14:46:41;;;;;;;7.15;4.20;;;;;;;-145.79;33.99;76470.19;5257201;28;20553;-72
2023/06/05 14:49:12;;;;;;;6.45;3.70;;;;;;;-145.79;34.33;76474.41;5258560;28;20431;-71
2023/06/05 14:51:43;;;;;;;5.80;4.47;;;;;;;-145.79;34.25;76465.94;5258875;28;20029;-71
2023/06/05 14:54:15;;;;;;;5.68;3.85;;;;;;;-145.79;34.14;76478.66;5238590;28;20033;-71
2023/06/05 14:56:46;;;;;;;5.53;3.15;;;;;;;-145.79;32.67;76480.78;5253580;28;20029;-72
2023/06/05 14:59:17;;;;;;;3.97;3.28;;;;;;;-145.79;33.54;76495.59;5260750;28;20021;-71
2023/06/05 15:01:49;;;;;;;4.90;4.45;;;;;;;-145.79;34.24;76508.31;5259309;28;20032;-71
2023/06/05 15:04:20;;;;;;;5.00;4.50;;;;;;;-145.79;34.06;76474.41;5260930;28;20056;-71
2023/06/05 15:06:53;;;;;;;4.45;3.90;;;;;;;-145.79;34.04;76463.81;5259973;28;20086;-72
2023/06/05 15:09:24;;;;;;;6.47;4.15;;;;;;;-145.79;33.90;76474.41;5261001;28;20424;-72
2023/06/05 15:11:56;;;;;;;6.75;3.65;;;;;;;-145.79;34.19;76470.19;5260664;28;20029;-71
2023/06/05 15:14:27;;;;;;;6.35;5.00;;;;;;;-145.79;33.96;76482.88;5259747;28;20020;-72
2023/06/05 15:16:58;;;;;;;5.80;3.95;;;;;;;-145.79;34.11;76489.25;5260113;28;20032;-71
2023/06/05 15:19:30;;;;;;;5.95;4.05;;;;;;;-145.79;34.16;76521.03;5260737;28;20039;-71
2023/06/05 15:22:01;;;;;;;6.60;4.40;;;;;;;-145.79;34.36;76518.91;5259939;28;20021;-71
2023/06/05 15:24:34;;;;;;;5.60;4.32;;;;;;;-145.79;34.69;76531.63;5260561;28;20115;-71
2023/06/05 15:27:07;;;;;;;6.47;4.25;;;;;;;-145.79;34.79;76533.75;5260175;28;20032;-71
2023/06/05 15:29:39;;;;;;;6.03;4.40;;;;;;;-145.79;34.88;76506.19;5259094;28;20033;-72
2023/06/05 15:32:10;;;;;;;5.72;3.75;;;;;;;-145.79;34.46;76512.56;5259935;28;20032;-71
2023/06/05 15:34:41;;;;;;;5.45;3.80;;;;;;;-145.79;34.35;76510.44;5260443;28;20567;-71
2023/06/05 15:37:13;;;;;;;5.75;3.60;;;;;;;-145.79;34.53;76508.31;5259232;28;20141;-73
2023/06/05 15:39:44;;;;;;;7.13;4.47;;;;;;;-145.79;35.09;76518.91;5259235;28;20492;-72
2023/06/05 15:42:32;;;;;;;5.97;3.92;;;;;;;-145.79;34.97;76527.38;5258622;28;20035;-72
2023/06/05 15:45:12;;;;;;;8.60;3.92;;;;;;;-145.79;34.96;76518.91;5264588;28;20032;-72
2023/06/05 15:47:44;;;;;;;6.40;4.13;;;;;;;-145.79;35.03;76538.00;5260611;28;20523;-72
2023/06/05 15:50:15;;;;;;;7.45;4.35;;;;;;;-145.79;34.95;76521.03;5263724;28;20107;-72
2023/06/05 15:52:46;;;;;;;4.68;4.00;;;;;;;-145.79;34.97;76518.91;5250607;28;20037;-74
2023/06/05 15:55:18;;;;;;;11.98;10.00;;;;;;;-145.79;34.81;76518.91;5243798;28;20116;-73
2023/06/05 15:57:49;;;;;;;8.77;6.22;;;;;;;-145.79;35.11;76514.69;5260829;28;20013;-73
2023/06/05 16:00:21;;;;;;;3.92;3.30;;;;;;;-145.79;35.20;76504.09;5264556;28;20025;-74
2023/06/05 16:02:53;;;;;;;4.68;4.00;;;;;;;-145.79;35.20;76516.78;5264346;28;20020;-74
2023/06/05 16:05:24;;;;;;;4.65;3.78;;;;;;;-145.79;35.13;76516.78;5263479;28;20094;-74
2023/06/05 16:07:56;;;;;;;7.22;4.25;;;;;;;-145.79;35.18;76525.28;5264365;28;20027;-75
2023/06/05 16:10:27;;;;;;;6.97;3.88;;;;;;;-145.79;35.00;76538.00;5263560;28;20437;-74
2023/06/05 16:12:58;;;;;;;5.45;3.92;;;;;;;-145.79;35.09;76538.00;5264274;28;20033;-75
2023/06/05 16:15:30;;;;;;;6.25;3.90;;;;;;;-145.79;35.02;76516.78;5264371;28;20048;-74
2023/06/05 16:18:01;;;;;;;5.53;3.63;;;;;;;-145.79;34.78;76527.38;5263139;28;20131;-74
2023/06/05 16:20:36;;;;;;;4.50;3.55;;;;;;;-145.79;35.12;76531.63;5264172;28;20028;-75
2023/06/05 16:23:07;;;;;;;7.40;3.60;;;;;;;-145.79;35.27;76540.09;5263653;28;20037;-74
2023/06/05 16:25:38;;;;;;;6.57;5.22;;;;;;;-145.79;35.19;76512.56;5262156;28;20451;-71
2023/06/05 16:28:10;;;;;;;6.00;4.18;;;;;;;-145.79;35.54;76550.69;5263815;28;20052;-76
2023/06/05 16:30:41;;;;;;;5.18;3.60;;;;;;;-145.79;35.40;76516.78;5256175;28;20067;-74
2023/06/05 16:33:12;;;;;;;7.10;3.85;;;;;;;-145.79;35.59;76525.28;5252937;28;20474;-74
2023/06/05 16:35:43;;;;;;;5.70;4.03;;;;;;;-145.79;35.49;76531.63;5263290;28;20116;-74
2023/06/05 16:38:15;;;;;;;5.53;3.70;;;;;;;-145.79;35.97;76533.75;5262902;28;20021;-75
2023/06/05 16:40:46;;;;;;;4.53;3.95;;;;;;;-145.79;35.28;76521.03;5262963;28;20132;-74
2023/06/05 16:43:17;;;;;;;7.53;3.67;;;;;;;-145.79;35.56;76525.28;5263761;28;20032;-75
2023/06/05 16:45:49;;;;;;;5.75;4.38;;;;;;;-145.79;35.88;76531.63;5263130;28;20021;-75
2023/06/05 16:48:22;;;;;;;5.38;4.30;;;;;;;-145.79;36.16;76554.94;5263690;28;20036;-74
2023/06/05 16:50:53;;;;;;;6.47;4.40;;;;;;;-145.79;36.13;76552.81;5262558;28;20025;-74
2023/06/05 16:53:24;;;;;;;8.90;4.38;;;;;;;-145.79;36.40;76584.59;5262214;28;20029;-73
